TimeBST,TemperatureF,Dew PointF,Humidity,Sea Level PressureIn,VisibilityMPH,Wind Direction,Wind SpeedMPH,Gust SpeedMPH,PrecipitationIn,Events,Conditions,WindDirDegrees,DateUTC
12:20 AM,35.6,33.8,93,30.12,-9999.0,South,5.8,-,N/A,,Clear,190,2013-04-27 23:20:00
12:50 AM,33.8,30.2,87,30.12,-9999.0,SSW,6.9,-,N/A,,Clear,200,2013-04-27 23:50:00
1:20 AM,37.4,33.8,87,30.09,-9999.0,SSW,9.2,-,N/A,,Clear,200,2013-04-28 00:20:00
1:50 AM,35.6,33.8,93,30.09,-9999.0,SSW,10.4,-,N/A,,Clear,200,2013-04-28 00:50:00
2:20 AM,35.6,33.8,93,30.09,-9999.0,South,10.4,-,N/A,,Clear,190,2013-04-28 01:20:00
2:50 AM,35.6,32.0,87,30.06,-9999.0,SSW,9.2,-,N/A,,Clear,200,2013-04-28 01:50:00
3:20 AM,35.6,32.0,87,30.06,-9999.0,South,6.9,-,N/A,,Clear,190,2013-04-28 02:20:00
3:50 AM,33.8,30.2,87,30.06,-9999.0,SW,5.8,-,N/A,,Clear,220,2013-04-28 02:50:00
4:20 AM,37.4,33.8,87,30.04,-9999.0,SSW,8.1,-,N/A,,Clear,200,2013-04-28 03:20:00
4:50 AM,41.0,35.6,81,30.04,-9999.0,SSW,10.4,-,N/A,,Clear,210,2013-04-28 03:50:00
5:20 AM,41.0,35.6,81,30.01,-9999.0,SSW,13.8,-,N/A,,Clear,210,2013-04-28 04:20:00
5:50 AM,41.0,35.6,81,30.01,-9999.0,SSW,11.5,-,N/A,,Clear,210,2013-04-28 04:50:00
6:20 AM,41.0,35.6,81,30.01,-9999.0,SW,10.4,-,N/A,,Clear,220,2013-04-28 05:20:00
6:50 AM,41.0,35.6,81,30.01,-9999.0,SSW,10.4,-,N/A,,Clear,210,2013-04-28 05:50:00
7:20 AM,42.8,35.6,76,30.01,-9999.0,SW,11.5,-,N/A,,Clear,220,2013-04-28 06:20:00
7:50 AM,42.8,35.6,76,30.01,-9999.0,SSW,16.1,-,N/A,,Clear,200,2013-04-28 06:50:00
8:20 AM,42.8,35.6,76,29.98,-9999.0,SSW,15.0,-,N/A,,Clear,210,2013-04-28 07:20:00
8:50 AM,44.6,35.6,71,29.98,6.2,SSW,16.1,-,N/A,,Unknown,210,2013-04-28 07:50:00
9:20 AM,46.4,37.4,71,29.95,6.2,SW,12.7,-,N/A,,Scattered Clouds,220,2013-04-28 08:20:00
9:50 AM,46.4,35.6,66,29.95,6.2,SW,16.1,-,N/A,,Partly Cloudy,230,2013-04-28 08:50:00
10:20 AM,50.0,37.4,62,29.95,6.2,SW,18.4,-,N/A,,Partly Cloudy,220,2013-04-28 09:20:00
10:50 AM,51.8,39.2,62,29.92,6.2,SW,20.7,-,N/A,,Partly Cloudy,220,2013-04-28 09:50:00
11:20 AM,55.4,39.2,54,29.92,6.2,SW,21.9,-,N/A,,Partly Cloudy,220,2013-04-28 10:20:00
11:50 AM,57.2,39.2,51,29.89,6.2,SSW,23.0,-,N/A,,Partly Cloudy,210,2013-04-28 10:50:00
12:20 PM,55.4,39.2,54,29.89,6.2,SW,21.9,-,N/A,,Scattered Clouds,220,2013-04-28 11:20:00
12:50 PM,57.2,41.0,55,29.89,6.2,SW,24.2,-,N/A,,Mostly Cloudy,220,2013-04-28 11:50:00
1:20 PM,57.2,41.0,55,29.86,6.2,SW,21.9,-,N/A,,Scattered Clouds,230,2013-04-28 12:20:00
1:50 PM,57.2,41.0,55,29.86,6.2,SW,24.2,-,N/A,,Scattered Clouds,230,2013-04-28 12:50:00
2:20 PM,55.4,39.2,54,29.86,6.2,SW,19.6,-,N/A,,Scattered Clouds,220,2013-04-28 13:20:00
2:50 PM,59.0,39.2,48,29.83,6.2,SW,20.7,-,N/A,,Scattered Clouds,220,2013-04-28 13:50:00
3:20 PM,60.8,41.0,48,29.83,6.2,SW,21.9,-,N/A,,Mostly Cloudy,230,2013-04-28 14:20:00
3:50 PM,59.0,39.2,48,29.80,6.2,WSW,21.9,-,N/A,,Scattered Clouds,240,2013-04-28 14:50:00
4:20 PM,55.4,41.0,58,29.80,6.2,WSW,20.7,-,N/A,,Scattered Clouds,240,2013-04-28 15:20:00
4:50 PM,55.4,41.0,58,29.80,6.2,SW,18.4,-,N/A,,Scattered Clouds,230,2013-04-28 15:50:00
5:20 PM,55.4,42.8,63,29.80,6.2,WSW,17.3,-,N/A,,Scattered Clouds,240,2013-04-28 16:20:00
5:50 PM,53.6,41.0,62,29.80,6.2,WSW,18.4,-,N/A,,Scattered Clouds,240,2013-04-28 16:50:00
6:20 PM,53.6,42.8,67,29.80,6.2,WSW,18.4,-,N/A,Rain,Light Rain,240,2013-04-28 17:20:00
6:50 PM,50.0,41.0,71,29.80,6.2,West,15.0,-,N/A,Rain,Light Rain,260,2013-04-28 17:50:00
7:20 PM,50.0,41.0,71,29.80,6.2,West,13.8,-,N/A,,Mostly Cloudy,260,2013-04-28 18:20:00
7:50 PM,50.0,41.0,71,29.77,6.2,WSW,12.7,-,N/A,Rain,Light Rain,240,2013-04-28 18:50:00
8:20 PM,50.0,41.0,71,29.80,6.2,WSW,12.7,-,N/A,,Scattered Clouds,250,2013-04-28 19:20:00
9:20 PM,48.2,41.0,76,29.80,6.2,SW,10.4,-,N/A,,Partly Cloudy,230,2013-04-28 20:20:00
9:50 PM,48.2,41.0,76,29.80,6.2,WSW,11.5,-,N/A,,Scattered Clouds,240,2013-04-28 20:50:00
10:20 PM,48.2,41.0,76,29.80,6.2,WSW,10.4,-,N/A,,Partly Cloudy,240,2013-04-28 21:20:00
10:50 PM,48.2,39.2,71,29.80,6.2,WSW,10.4,-,N/A,,Partly Cloudy,240,2013-04-28 21:50:00
11:20 PM,48.2,39.2,71,29.80,6.2,West,16.1,-,N/A,,Partly Cloudy,270,2013-04-28 22:20:00
11:50 PM,48.2,39.2,71,29.80,-9999.0,West,15.0,-,N/A,,Clear,270,2013-04-28 22:50:00